map of KLHM home
KLHM - Airport
Location
City:  Lincoln, California, United States
Name:Lincoln Regional/Karl Harder Field
ICAO:KLHM
FAA LID:LHM

Details
Type:Airport (Airfield)
Use:Public/Civil
Latitude:3854'33"N (38.909167)
Longitude:12121'05"W (-121.351332)
Datum:WGS 1984
Elevation:121 ft (37 m)
Variation:13.53E (WMM2015v2 magnetic declination)
-0.08 annual change
Runways:1
Longest:6001 × 100 ft (1829 × 30.5 m), paved

Time
Time Zone:UTC-8 (DST-7)
Local Time:

Weather
METAR:KLHM 041415Z AUTO 16019G24KT 10SM OVC032 09/07 A2947 RMK AO1

Related Locations
Nearby:
Farthest:FTU: 11260 mi / 18122 km
Tolagnaro [Maurillac Airport (Fort Dauphin Airport)], MG

Find:

   beyond  
but within

Other Information
Maps:
NOTAMs:
Links:
Sources:

  
  • flag of United States
  • flag of California
  

Sectional Chart

Flight Planning
at skyvector.com

Satellite Image

Google Maps Satellite view

 

Copyright © 2004-2019 Karl L. Swartz. All rights reserved.
The Great Circle Mapper name and logo are trademarks of the Great Circle Mapper.
All other trademarks mentioned herein belong to their respective owners.
Please see credits for attibutions and further copyright information.

  Follow gcmap on Facebook Follow gcmap on Twitter GCmap on LinkedIn

hCard Microformat

Geo Microformat